Time;durP1;ratioP1;P1;durP2;ratioP2;P2;SDS_P1;SDS_P2;PMS_P1;PMS_P2;Temp;Humidity;BMP_temperature;BMP_pressure;BME280_temperature;BME280_humidity;BME280_pressure;Samples;Min_cycle;Max_cycle;Signal;HPM_P1;HPM_P2
2021/09/30 00:02:03;;;;;;;2.25;1.60;;;10.70;99.90;;;;;;5024879;28;20183;-49
2021/09/30 00:04:29;;;;;;;1.93;1.10;;;10.80;99.90;;;;;;5031656;28;20189;-49
2021/09/30 00:06:54;;;;;;;2.07;0.97;;;10.60;99.90;;;;;;5031865;28;20469;-49
2021/09/30 00:09:20;;;;;;;4.10;1.33;;;10.60;99.90;;;;;;5025389;28;20584;-50
2021/09/30 00:11:49;;;;;;;1.17;1.07;;;10.70;99.90;;;;;;5032405;28;20174;-50
2021/09/30 00:33:51;;;;;;;3.95;1.38;;;10.30;99.90;;;;;;5036831;28;20629;-49
2021/09/30 00:49:51;;;;;;;3.35;1.35;;;10.30;99.90;;;;;;4988616;28;20188;-49
2021/09/30 00:55:01;;;;;;;3.37;1.67;;;10.20;99.90;;;;;;5026644;28;20186;-49
2021/09/30 01:18:35;;;;;;;1.20;1.10;;;9.80;99.90;;;;;;5033147;28;20217;-49
2021/09/30 01:45:57;;;;;;;1.90;1.50;;;9.70;99.90;;;;;;5018705;28;20239;-49
2021/09/30 02:59:54;;;;;;;2.28;1.88;;;9.80;99.90;;;;;;5030908;28;20325;-48
2021/09/30 03:02:20;;;;;;;1.30;1.20;;;9.70;99.90;;;;;;5027915;28;20224;-49
2021/09/30 03:04:47;;;;;;;3.08;1.40;;;9.60;99.90;;;;;;5039928;28;20178;-49
2021/09/30 03:07:15;;;;;;;3.22;1.30;;;9.60;99.90;;;;;;5032061;28;20328;-49
2021/09/30 03:09:45;;;;;;;1.60;1.25;;;9.60;99.90;;;;;;5034774;28;20204;-48
2021/09/30 03:12:27;;;;;;;1.90;1.40;;;9.50;99.90;;;;;;5031854;28;20182;-50
2021/09/30 03:15:50;;;;;;;3.40;2.75;;;9.70;99.90;;;;;;5030274;28;20205;-49
2021/09/30 03:18:12;;;;;;;1.63;1.52;;;9.80;99.90;;;;;;5032752;28;20255;-48
2021/09/30 03:20:49;;;;;;;1.63;1.45;;;9.60;99.90;;;;;;5023920;28;20188;-49
2021/09/30 03:23:31;;;;;;;3.63;1.52;;;9.80;99.90;;;;;;5027401;28;20187;-48
2021/09/30 03:25:57;;;;;;;2.15;1.40;;;9.80;99.90;;;;;;5026999;28;20187;-49
2021/09/30 03:28:24;;;;;;;2.08;1.35;;;9.80;99.90;;;;;;5024054;28;20670;-49
2021/09/30 03:30:54;;;;;;;2.05;1.38;;;9.50;99.90;;;;;;5026967;28;20193;-49
2021/09/30 03:33:21;;;;;;;1.95;1.85;;;9.60;99.90;;;;;;5032565;28;20239;-49
2021/09/30 03:35:48;;;;;;;2.22;1.55;;;9.60;99.90;;;;;;5035313;28;20217;-49
2021/09/30 03:38:14;;;;;;;1.50;1.40;;;9.70;99.90;;;;;;5029783;28;20268;-49
2021/09/30 03:40:42;;;;;;;1.67;1.20;;;9.50;99.90;;;;;;5031456;28;20201;-48
2021/09/30 03:43:08;;;;;;;2.80;2.60;;;9.70;99.90;;;;;;5020880;28;20552;-49
2021/09/30 03:45:35;;;;;;;1.88;1.00;;;9.70;99.90;;;;;;5024095;28;20190;-48
2021/09/30 03:48:01;;;;;;;2.65;1.30;;;9.30;99.90;;;;;;5041338;28;20346;-49
2021/09/30 03:50:31;;;;;;;1.80;1.70;;;9.40;99.90;;;;;;5032287;28;20175;-49
2021/09/30 04:00:51;;;;;;;3.00;1.50;;;9.10;99.90;;;;;;5024235;28;20197;-48
2021/09/30 04:03:17;;;;;;;2.30;1.50;;;9.10;99.90;;;;;;5031352;28;20189;-49
2021/09/30 04:05:43;;;;;;;2.30;1.60;;;9.00;99.90;;;;;;5032420;28;20186;-49
2021/09/30 04:08:08;;;;;;;1.70;1.47;;;9.10;99.90;;;;;;5030554;28;21377;-48
2021/09/30 04:10:34;;;;;;;1.57;1.47;;;9.00;99.90;;;;;;5033634;28;20186;-49
2021/09/30 04:13:00;;;;;;;2.73;1.43;;;8.90;99.90;;;;;;5031313;28;20280;-49
2021/09/30 04:15:26;;;;;;;1.53;1.40;;;8.80;99.90;;;;;;5026671;28;20265;-49
2021/09/30 04:17:51;;;;;;;2.27;1.80;;;9.20;99.90;;;;;;5031238;28;20199;-49
2021/09/30 04:20:17;;;;;;;1.70;1.60;;;8.90;99.90;;;;;;5026491;28;20430;-49
2021/09/30 04:22:44;;;;;;;1.90;1.80;;;9.10;99.90;;;;;;5031167;28;20181;-49
2021/09/30 04:25:11;;;;;;;2.85;1.75;;;9.10;99.90;;;;;;5024106;28;20800;-49
2021/09/30 04:27:38;;;;;;;2.88;1.60;;;8.90;99.90;;;;;;5032677;28;20585;-49
2021/09/30 04:30:05;;;;;;;1.52;1.42;;;8.80;99.90;;;;;;5026492;28;20189;-49
2021/09/30 04:32:31;;;;;;;2.20;2.00;;;8.90;99.90;;;;;;5030857;28;20174;-49
2021/09/30 04:34:57;;;;;;;1.90;1.70;;;8.80;99.90;;;;;;5035186;28;20675;-49
2021/09/30 04:37:23;;;;;;;2.22;1.77;;;8.70;99.90;;;;;;5028166;28;20468;-49
2021/09/30 04:39:50;;;;;;;2.63;1.80;;;8.60;99.90;;;;;;5029579;28;20692;-49
2021/09/30 04:42:16;;;;;;;3.25;1.90;;;8.80;99.90;;;;;;5031818;28;20182;-49
2021/09/30 04:44:42;;;;;;;2.67;2.33;;;8.70;99.90;;;;;;5023520;28;20182;-49
2021/09/30 04:47:07;;;;;;;1.90;1.80;;;8.90;99.90;;;;;;5030249;28;20622;-49
2021/09/30 04:49:33;;;;;;;2.60;1.63;;;9.00;99.90;;;;;;5034157;28;20498;-49
2021/09/30 04:51:59;;;;;;;2.63;1.60;;;8.70;99.90;;;;;;5026318;28;20187;-49
2021/09/30 04:54:25;;;;;;;2.10;1.77;;;8.70;99.90;;;;;;5029410;28;20197;-50
2021/09/30 04:56:50;;;;;;;1.63;1.53;;;9.00;99.90;;;;;;5021657;28;20210;-49
2021/09/30 04:59:16;;;;;;;2.73;1.70;;;9.00;99.90;;;;;;5035301;28;20207;-49
2021/09/30 05:01:42;;;;;;;2.50;1.80;;;8.80;99.90;;;;;;5029638;28;20183;-50
2021/09/30 05:04:07;;;;;;;2.23;1.60;;;8.70;99.90;;;;;;5039826;28;20440;-50
2021/09/30 05:06:33;;;;;;;2.03;1.83;;;8.80;99.90;;;;;;5035296;28;20573;-50
2021/09/30 05:09:00;;;;;;;2.00;1.70;;;8.80;99.90;;;;;;5026203;28;20206;-50
2021/09/30 05:11:32;;;;;;;4.10;2.38;;;8.70;99.90;;;;;;5025100;28;20185;-49
2021/09/30 05:13:58;;;;;;;3.63;1.50;;;8.60;99.90;;;;;;5025414;28;20189;-48
2021/09/30 05:16:25;;;;;;;3.58;1.67;;;8.70;99.90;;;;;;5029522;28;20293;-49
2021/09/30 05:18:54;;;;;;;2.97;2.22;;;8.50;99.90;;;;;;5023589;28;20253;-49
2021/09/30 05:21:20;;;;;;;3.20;2.00;;;8.60;99.90;;;;;;5023637;28;20190;-49
2021/09/30 05:23:47;;;;;;;5.90;2.33;;;8.70;99.90;;;;;;5024293;28;20723;-48
2021/09/30 05:26:14;;;;;;;3.75;2.10;;;8.50;99.90;;;;;;5025809;28;20436;-49
2021/09/30 05:28:40;;;;;;;3.05;2.25;;;8.70;99.90;;;;;;5022762;28;20769;-49
2021/09/30 05:31:06;;;;;;;3.95;2.25;;;8.60;99.90;;;;;;5026525;28;20673;-49
2021/09/30 05:33:32;;;;;;;2.65;2.17;;;8.50;99.90;;;;;;5028159;28;20547;-49
2021/09/30 05:35:58;;;;;;;4.00;2.38;;;8.60;99.90;;;;;;5025267;28;20303;-48
2021/09/30 05:38:24;;;;;;;4.37;2.00;;;8.50;99.90;;;;;;5024422;28;20645;-49
2021/09/30 05:40:50;;;;;;;3.47;2.53;;;8.40;99.90;;;;;;5020788;28;20449;-49
2021/09/30 05:43:42;;;;;;;2.07;1.97;;;8.50;99.90;;;;;;5026888;28;20204;-49
2021/09/30 05:46:05;;;;;;;2.22;1.83;;;8.60;99.90;;;;;;5023577;28;20419;-50
2021/09/30 05:48:30;;;;;;;2.30;2.10;;;8.70;99.90;;;;;;5026825;28;20198;-48
2021/09/30 05:50:57;;;;;;;5.53;2.40;;;8.70;99.90;;;;;;5028916;28;20194;-49
2021/09/30 05:53:23;;;;;;;2.42;2.22;;;8.50;99.90;;;;;;5028984;28;20295;-50
2021/09/30 05:55:49;;;;;;;2.97;2.22;;;8.50;99.90;;;;;;5018787;28;20198;-48
2021/09/30 05:58:16;;;;;;;1.80;1.70;;;8.60;99.90;;;;;;5024657;28;20257;-49
2021/09/30 06:11:22;;;;;;;4.07;2.33;;;8.60;99.90;;;;;;5025747;28;20229;-49
2021/09/30 06:16:17;;;;;;;2.53;2.20;;;8.70;99.90;;;;;;5025550;28;20218;-50
2021/09/30 06:18:43;;;;;;;2.90;2.60;;;8.60;99.90;;;;;;5025332;28;20293;-50
2021/09/30 06:21:09;;;;;;;2.23;2.03;;;8.80;99.90;;;;;;5033448;28;20513;-49
2021/09/30 06:23:34;;;;;;;3.37;1.93;;;8.80;99.90;;;;;;5029554;28;20393;-48
2021/09/30 06:26:00;;;;;;;4.27;2.33;;;8.90;99.90;;;;;;5040754;28;20513;-49
2021/09/30 06:28:26;;;;;;;3.03;2.50;;;9.00;99.90;;;;;;5034740;28;20210;-49
2021/09/30 06:30:52;;;;;;;2.87;2.10;;;8.90;99.90;;;;;;5024356;28;20445;-49
2021/09/30 06:33:18;;;;;;;1.73;1.57;;;9.20;99.90;;;;;;5041254;28;20178;-49
2021/09/30 06:35:44;;;;;;;2.92;1.88;;;9.10;99.90;;;;;;5031744;28;20671;-49
2021/09/30 06:38:10;;;;;;;4.27;2.20;;;9.30;99.90;;;;;;5035093;28;20221;-50
2021/09/30 06:40:36;;;;;;;2.40;2.20;;;9.40;99.90;;;;;;5034110;28;20453;-50
2021/09/30 06:43:02;;;;;;;3.25;2.63;;;9.30;99.90;;;;;;5035627;28;20440;-49
2021/09/30 06:45:28;;;;;;;5.00;2.55;;;9.40;99.90;;;;;;5026867;28;20660;-51
2021/09/30 06:47:54;;;;;;;3.57;1.90;;;9.30;99.90;;;;;;5029144;28;20222;-51
2021/09/30 06:50:20;;;;;;;4.17;2.03;;;9.40;99.90;;;;;;5032678;28;20534;-50
2021/09/30 06:52:45;;;;;;;2.75;2.25;;;9.60;99.90;;;;;;5038646;28;20656;-50
2021/09/30 06:55:12;;;;;;;2.60;2.27;;;9.60;99.90;;;;;;5030761;28;20264;-51
2021/09/30 06:57:38;;;;;;;2.20;1.70;;;9.70;99.90;;;;;;5037804;28;20612;-49
2021/09/30 07:00:09;;;;;;;3.80;2.03;;;9.90;99.90;;;;;;5020450;28;20197;-49
2021/09/30 07:02:40;;;;;;;2.83;2.28;;;10.30;99.90;;;;;;5028818;28;20446;-48
2021/09/30 07:05:09;;;;;;;2.90;2.60;;;10.20;99.90;;;;;;5028537;28;20188;-48
2021/09/30 07:07:35;;;;;;;2.33;2.00;;;10.50;99.90;;;;;;5026851;28;20207;-48
2021/09/30 07:10:03;;;;;;;3.55;1.73;;;10.60;99.90;;;;;;5021482;28;20206;-48
2021/09/30 07:12:28;;;;;;;2.55;2.10;;;11.20;99.90;;;;;;5029352;28;20217;-51
2021/09/30 07:14:54;;;;;;;9.73;2.30;;;11.10;99.90;;;;;;5033024;28;20622;-51
2021/09/30 07:17:21;;;;;;;3.27;1.90;;;11.60;99.90;;;;;;5040369;28;20619;-50
2021/09/30 07:19:47;;;;;;;2.15;1.50;;;11.80;99.90;;;;;;5035694;28;20252;-49
2021/09/30 07:22:12;;;;;;;1.67;1.30;;;11.70;99.90;;;;;;5027176;28;20224;-49
2021/09/30 07:24:38;;;;;;;1.83;1.53;;;11.90;99.90;;;;;;5038756;28;20244;-49
2021/09/30 07:27:09;;;;;;;4.73;2.27;;;12.10;99.90;;;;;;5028706;28;20301;-49
2021/09/30 07:29:35;;;;;;;6.18;1.40;;;12.10;99.90;;;;;;5033606;28;20864;-49
2021/09/30 07:32:02;;;;;;;2.40;1.60;;;12.50;99.90;;;;;;5033699;28;20203;-49
2021/09/30 07:34:29;;;;;;;3.60;1.40;;;12.70;99.90;;;;;;5037136;28;20542;-50
2021/09/30 07:36:55;;;;;;;5.93;2.53;;;12.60;99.90;;;;;;5032711;28;20206;-50
2021/09/30 07:39:21;;;;;;;4.40;1.70;;;12.80;99.90;;;;;;5031214;28;20232;-51
2021/09/30 07:41:48;;;;;;;4.70;1.90;;;13.00;99.90;;;;;;5038037;28;20185;-51
2021/09/30 07:44:14;;;;;;;12.43;9.68;;;13.00;99.90;;;;;;5026940;28;20190;-50
2021/09/30 07:46:42;;;;;;;4.63;2.50;;;13.00;99.90;;;;;;5030462;28;20184;-49
2021/09/30 07:49:09;;;;;;;3.83;1.50;;;13.10;99.90;;;;;;5027494;28;20458;-49
2021/09/30 07:51:37;;;;;;;3.63;1.90;;;13.40;99.90;;;;;;5027646;28;20191;-50
2021/09/30 07:54:04;;;;;;;5.20;2.00;;;13.50;99.90;;;;;;5031233;28;20185;-50
2021/09/30 07:56:30;;;;;;;4.93;1.80;;;13.80;99.90;;;;;;5031155;28;20229;-50
2021/09/30 07:58:57;;;;;;;2.70;1.35;;;13.90;99.90;;;;;;5026651;28;20213;-49
2021/09/30 08:01:23;;;;;;;3.40;1.90;;;13.90;99.10;;;;;;5026536;28;20261;-49
2021/09/30 08:03:52;;;;;;;1.52;1.00;;;14.20;98.20;;;;;;5032369;28;20667;-49
2021/09/30 08:06:18;;;;;;;3.70;1.35;;;14.30;97.80;;;;;;5025892;28;20264;-49
2021/09/30 08:08:44;;;;;;;2.00;1.20;;;14.50;97.00;;;;;;5028209;28;20213;-48
2021/09/30 08:11:10;;;;;;;2.05;1.10;;;14.20;96.40;;;;;;5032479;28;20711;-49
2021/09/30 08:13:36;;;;;;;1.73;1.10;;;14.40;96.70;;;;;;5031132;28;20273;-50
2021/09/30 08:16:02;;;;;;;1.20;0.90;;;14.40;96.60;;;;;;5029912;28;20958;-53
2021/09/30 08:18:28;;;;;;;2.95;1.10;;;14.50;95.30;;;;;;5032441;28;20702;-48
2021/09/30 08:20:54;;;;;;;3.20;1.30;;;14.50;95.40;;;;;;5032584;28;20182;-50
2021/09/30 08:23:21;;;;;;;1.23;1.10;;;14.30;95.30;;;;;;5031586;28;20202;-51
2021/09/30 08:25:47;;;;;;;1.55;1.10;;;14.20;95.40;;;;;;5032061;28;20441;-50
2021/09/30 08:28:13;;;;;;;1.20;1.10;;;14.20;95.20;;;;;;5031881;28;20602;-50
2021/09/30 08:30:40;;;;;;;1.25;0.82;;;14.60;95.40;;;;;;5033058;28;20190;-49
2021/09/30 08:33:08;;;;;;;2.63;1.17;;;14.60;94.60;;;;;;5029733;28;20186;-49
2021/09/30 08:35:35;;;;;;;2.83;1.10;;;14.70;94.30;;;;;;5033766;28;20256;-48
2021/09/30 08:38:01;;;;;;;2.10;1.38;;;15.00;92.20;;;;;;5031655;28;20636;-50
2021/09/30 08:40:27;;;;;;;4.13;2.00;;;15.20;92.00;;;;;;5031864;28;20206;-48
2021/09/30 08:42:52;;;;;;;2.63;1.40;;;15.50;91.40;;;;;;5032175;28;20417;-48
2021/09/30 08:45:20;;;;;;;2.70;1.10;;;15.30;91.20;;;;;;5023102;28;20241;-48
2021/09/30 08:48:07;;;;;;;1.45;1.08;;;15.30;90.20;;;;;;5031554;28;20970;-49
2021/09/30 08:50:38;;;;;;;1.85;1.20;;;15.30;90.40;;;;;;5032250;28;20178;-48
2021/09/30 08:53:09;;;;;;;2.22;1.63;;;15.10;90.40;;;;;;5023896;28;20186;-48
2021/09/30 08:55:36;;;;;;;2.80;1.40;;;15.70;90.50;;;;;;5027440;28;20301;-50
2021/09/30 08:58:03;;;;;;;1.50;0.80;;;16.00;90.40;;;;;;5023400;28;20225;-48
2021/09/30 09:00:30;;;;;;;1.33;1.02;;;16.30;89.20;;;;;;5029007;28;20197;-50
2021/09/30 09:02:56;;;;;;;1.20;0.90;;;16.70;87.90;;;;;;5026526;28;20184;-48
2021/09/30 09:05:23;;;;;;;4.27;1.83;;;16.80;85.80;;;;;;5048394;28;20185;-49
2021/09/30 09:07:57;;;;;;;1.65;1.00;;;16.90;81.90;;;;;;5029916;28;20687;-50
2021/09/30 09:10:26;;;;;;;3.65;2.60;;;17.10;81.20;;;;;;5030587;28;20182;-48
2021/09/30 09:13:03;;;;;;;2.08;1.77;;;16.90;81.50;;;;;;5030102;28;20652;-50
2021/09/30 09:15:39;;;;;;;2.97;1.50;;;16.70;80.60;;;;;;5030766;28;20604;-49
2021/09/30 09:18:15;;;;;;;2.40;1.35;;;16.90;78.10;;;;;;5031302;28;20624;-49
2021/09/30 09:20:41;;;;;;;2.78;1.13;;;17.30;78.00;;;;;;5030966;28;20170;-50
2021/09/30 09:23:10;;;;;;;2.33;1.00;;;17.10;78.60;;;;;;5030858;28;20174;-48
2021/09/30 09:25:37;;;;;;;3.08;1.00;;;17.60;79.20;;;;;;5026111;28;20724;-50
2021/09/30 09:28:03;;;;;;;2.15;1.30;;;17.60;79.00;;;;;;5035858;28;20202;-50
2021/09/30 09:30:47;;;;;;;2.95;1.27;;;17.90;77.40;;;;;;5032254;28;20667;-50
2021/09/30 09:33:17;;;;;;;1.58;0.90;;;18.20;75.60;;;;;;5026461;28;20194;-50
2021/09/30 09:36:12;;;;;;;1.80;0.93;;;18.50;72.70;;;;;;5039583;28;20694;-50
2021/09/30 09:38:45;;;;;;;1.90;1.10;;;18.90;73.60;;;;;;5029718;28;20572;-49
2021/09/30 09:41:14;;;;;;;2.55;1.08;;;18.60;71.40;;;;;;5030192;28;20216;-49
2021/09/30 09:43:45;;;;;;;2.40;1.40;;;18.60;73.40;;;;;;5029711;28;20189;-49
2021/09/30 09:46:13;;;;;;;1.65;1.00;;;19.80;70.60;;;;;;5040537;28;20255;-49
2021/09/30 09:48:39;;;;;;;1.33;0.95;;;19.90;67.10;;;;;;5031888;28;20206;-49
2021/09/30 09:51:11;;;;;;;0.80;0.60;;;20.00;66.20;;;;;;5042834;28;20632;-49
2021/09/30 09:53:38;;;;;;;1.20;1.08;;;19.40;62.40;;;;;;5041057;28;20235;-49
2021/09/30 09:56:13;;;;;;;1.13;0.80;;;18.80;65.50;;;;;;5036334;28;20213;-49
2021/09/30 09:58:45;;;;;;;3.33;0.80;;;18.80;67.40;;;;;;5036230;28;20205;-49
2021/09/30 10:01:10;;;;;;;2.65;1.85;;;18.60;66.70;;;;;;5032968;28;20181;-49
2021/09/30 10:03:37;;;;;;;2.70;1.17;;;19.50;65.00;;;;;;5046616;28;20181;-49
2021/09/30 10:06:05;;;;;;;3.65;1.08;;;20.50;63.20;;;;;;5041544;28;20447;-49
2021/09/30 10:08:32;;;;;;;2.42;1.52;;;21.00;61.90;;;;;;5031820;28;20298;-49
2021/09/30 10:10:59;;;;;;;1.85;0.80;;;20.70;60.50;;;;;;5042103;28;20214;-49
2021/09/30 10:13:26;;;;;;;2.58;1.27;;;20.80;60.80;;;;;;5033631;28;20703;-49
2021/09/30 10:15:54;;;;;;;3.25;1.38;;;20.30;60.90;;;;;;5024511;28;20294;-49
2021/09/30 10:18:24;;;;;;;3.22;1.08;;;19.60;60.50;;;;;;5029832;28;20214;-50
2021/09/30 10:20:51;;;;;;;7.80;4.70;;;18.80;62.20;;;;;;5046035;28;20193;-49
2021/09/30 10:23:24;;;;;;;3.35;0.90;;;18.40;64.50;;;;;;5032638;28;20239;-48
2021/09/30 10:25:52;;;;;;;1.05;0.88;;;18.20;66.30;;;;;;5030129;28;20655;-50
2021/09/30 10:28:19;;;;;;;1.58;1.20;;;17.40;68.60;;;;;;5032353;28;20252;-50
2021/09/30 10:30:48;;;;;;;1.00;0.82;;;17.30;69.60;;;;;;5028240;28;20235;-49
2021/09/30 10:33:19;;;;;;;2.55;1.00;;;16.80;71.10;;;;;;5033103;28;20198;-49
2021/09/30 10:35:52;;;;;;;2.38;1.00;;;16.60;73.10;;;;;;5033494;28;20643;-49
2021/09/30 10:38:29;;;;;;;1.60;1.30;;;16.50;74.50;;;;;;5036598;28;20278;-48
2021/09/30 10:41:06;;;;;;;6.40;1.17;;;16.50;73.70;;;;;;5033542;28;20174;-49
2021/09/30 10:43:34;;;;;;;1.42;0.90;;;16.40;72.60;;;;;;5026890;28;20281;-49
2021/09/30 10:46:01;;;;;;;2.50;0.80;;;16.20;71.50;;;;;;5027909;28;20187;-48
2021/09/30 10:48:27;;;;;;;2.15;1.33;;;16.30;70.30;;;;;;5032867;28;20255;-49
2021/09/30 10:51:13;;;;;;;2.37;1.10;;;16.00;72.40;;;;;;5026122;28;20191;-49
2021/09/30 10:53:45;;;;;;;3.40;1.27;;;16.00;72.20;;;;;;5032628;28;20276;-49
2021/09/30 10:56:30;;;;;;;1.02;0.85;;;16.20;73.50;;;;;;5039190;28;20698;-49
2021/09/30 10:59:00;;;;;;;1.80;1.00;;;16.10;73.90;;;;;;5026549;28;20214;-49
2021/09/30 11:01:25;;;;;;;0.93;0.75;;;16.00;73.20;;;;;;5035441;28;20182;-48
2021/09/30 11:04:05;;;;;;;1.63;0.70;;;16.50;70.90;;;;;;5029144;28;20185;-50
2021/09/30 11:06:31;;;;;;;1.60;0.80;;;16.80;68.90;;;;;;5028960;28;20448;-50
2021/09/30 11:09:26;;;;;;;1.13;0.70;;;16.30;67.30;;;;;;5039121;28;20315;-50
2021/09/30 11:12:07;;;;;;;2.05;0.80;;;17.00;69.30;;;;;;5042834;28;20581;-50
2021/09/30 11:14:33;;;;;;;2.15;0.98;;;17.00;67.50;;;;;;5017269;28;20183;-50
2021/09/30 11:16:59;;;;;;;1.17;0.80;;;16.70;67.50;;;;;;5051332;28;20262;-50
2021/09/30 11:19:43;;;;;;;1.47;0.70;;;16.60;68.50;;;;;;5051510;28;20558;-50
2021/09/30 11:22:12;;;;;;;2.05;1.02;;;16.50;69.00;;;;;;5035046;28;20438;-50
2021/09/30 11:24:50;;;;;;;5.35;1.05;;;16.40;68.80;;;;;;5030654;28;20512;-51
2021/09/30 11:27:18;;;;;;;2.70;1.75;;;16.50;68.70;;;;;;5031702;28;20211;-50
2021/09/30 11:29:44;;;;;;;2.03;1.38;;;16.70;69.40;;;;;;5025180;28;20213;-51
2021/09/30 11:32:10;;;;;;;2.40;1.05;;;16.60;67.20;;;;;;5031238;28;20190;-51
2021/09/30 11:34:49;;;;;;;2.30;1.37;;;16.50;67.60;;;;;;5038583;28;20248;-50
2021/09/30 11:37:19;;;;;;;1.65;0.95;;;16.90;68.70;;;;;;5031965;28;20742;-51
2021/09/30 11:39:49;;;;;;;1.55;1.45;;;17.00;68.60;;;;;;5024373;28;20182;-51
2021/09/30 11:42:18;;;;;;;1.80;0.85;;;17.00;68.50;;;;;;5029142;28;20182;-50
2021/09/30 11:45:01;;;;;;;2.65;1.67;;;16.90;66.90;;;;;;5028692;28;20194;-51
2021/09/30 11:47:29;;;;;;;0.80;0.60;;;16.90;66.80;;;;;;5031840;28;20181;-50
2021/09/30 11:49:55;;;;;;;3.38;0.80;;;16.70;64.90;;;;;;5030685;28;20567;-51
2021/09/30 11:52:21;;;;;;;1.65;0.88;;;17.10;65.20;;;;;;5026653;28;20516;-51
2021/09/30 11:54:48;;;;;;;3.00;0.67;;;17.10;65.70;;;;;;5031665;28;20216;-51
2021/09/30 11:57:18;;;;;;;1.42;1.05;;;16.70;67.40;;;;;;5031236;28;20583;-50
2021/09/30 11:59:44;;;;;;;1.20;0.90;;;16.80;70.40;;;;;;5024405;28;20490;-51
2021/09/30 12:02:10;;;;;;;1.40;0.70;;;16.80;67.20;;;;;;5029937;28;20190;-51
2021/09/30 12:04:45;;;;;;;1.10;0.80;;;16.70;66.70;;;;;;5030160;28;20425;-51
2021/09/30 12:07:27;;;;;;;3.33;1.00;;;16.80;67.10;;;;;;5029756;28;20182;-51
2021/09/30 12:09:55;;;;;;;1.92;1.38;;;16.90;67.10;;;;;;5019127;28;20232;-51
2021/09/30 12:12:35;;;;;;;2.53;0.70;;;17.10;68.10;;;;;;5030841;28;20213;-51
2021/09/30 12:15:03;;;;;;;0.80;0.80;;;17.00;67.90;;;;;;5024109;28;20273;-51
2021/09/30 12:17:36;;;;;;;1.42;0.80;;;17.10;69.60;;;;;;5028013;28;20268;-51
2021/09/30 12:20:06;;;;;;;1.27;0.80;;;17.30;69.70;;;;;;5030809;28;20206;-51
2021/09/30 12:22:55;;;;;;;1.77;1.15;;;17.30;68.80;;;;;;5021547;28;20636;-51
2021/09/30 12:25:26;;;;;;;2.20;0.90;;;17.40;66.40;;;;;;5024822;28;20562;-51
2021/09/30 12:27:55;;;;;;;1.73;0.93;;;17.50;66.30;;;;;;5022652;28;20228;-51
2021/09/30 12:30:29;;;;;;;0.93;0.80;;;17.60;66.50;;;;;;5026310;28;20178;-51
2021/09/30 12:33:02;;;;;;;3.75;0.70;;;17.60;66.30;;;;;;5034725;28;20182;-50
2021/09/30 12:35:31;;;;;;;1.98;0.88;;;17.60;65.10;;;;;;5024790;28;20290;-50
2021/09/30 12:37:59;;;;;;;1.50;0.70;;;17.60;66.10;;;;;;5032667;28;20208;-50
2021/09/30 12:40:36;;;;;;;2.95;0.77;;;17.70;65.90;;;;;;5030183;28;20624;-51
2021/09/30 12:43:07;;;;;;;1.90;0.80;;;17.60;64.60;;;;;;5025760;28;20737;-51
2021/09/30 12:45:44;;;;;;;2.72;1.05;;;17.60;64.90;;;;;;5025348;28;20721;-50
2021/09/30 12:48:11;;;;;;;0.80;0.70;;;17.50;65.80;;;;;;5029549;28;20209;-51
2021/09/30 12:50:52;;;;;;;1.25;0.70;;;17.60;64.90;;;;;;5026006;28;20182;-50
2021/09/30 12:53:20;;;;;;;1.42;0.75;;;17.30;65.80;;;;;;5032283;28;20182;-50
2021/09/30 12:55:48;;;;;;;1.40;1.30;;;17.40;66.00;;;;;;5034134;28;20206;-50
2021/09/30 12:58:34;;;;;;;3.03;0.85;;;17.40;67.10;;;;;;5028979;28;20202;-50
2021/09/30 13:01:19;;;;;;;1.70;1.13;;;17.10;67.30;;;;;;5027412;28;20202;-50
2021/09/30 13:04:12;;;;;;;1.85;0.90;;;17.20;65.80;;;;;;5024956;28;20180;-50
2021/09/30 13:06:52;;;;;;;0.85;0.70;;;17.30;65.30;;;;;;5026726;28;20209;-51
2021/09/30 13:09:26;;;;;;;1.23;0.70;;;17.50;64.00;;;;;;5032880;28;20376;-51
2021/09/30 13:11:55;;;;;;;1.73;0.90;;;17.50;63.00;;;;;;5023326;28;20186;-51
2021/09/30 13:14:30;;;;;;;1.40;0.77;;;17.40;63.20;;;;;;5025645;28;20194;-50
2021/09/30 13:17:06;;;;;;;1.15;0.88;;;17.60;64.30;;;;;;5041457;28;20206;-51
2021/09/30 13:20:07;;;;;;;1.90;1.20;;;17.50;64.50;;;;;;5030759;28;20198;-51
2021/09/30 13:22:39;;;;;;;1.77;1.05;;;17.40;66.10;;;;;;5023961;28;20219;-52
2021/09/30 13:25:11;;;;;;;1.77;0.90;;;17.40;63.50;;;;;;5027984;28;20234;-51
2021/09/30 13:27:40;;;;;;;1.23;0.93;;;17.30;63.70;;;;;;5030651;28;20212;-50
2021/09/30 13:30:18;;;;;;;2.55;1.15;;;17.30;64.50;;;;;;5026888;28;20210;-51
2021/09/30 13:32:44;;;;;;;2.78;1.10;;;17.20;64.20;;;;;;5030371;28;20182;-51
2021/09/30 13:35:11;;;;;;;1.85;0.98;;;17.00;63.20;;;;;;5028859;28;20651;-50
2021/09/30 13:37:38;;;;;;;1.92;0.80;;;17.20;64.30;;;;;;5029068;28;20237;-51
2021/09/30 13:40:07;;;;;;;1.20;0.80;;;17.20;64.80;;;;;;5025889;28;20194;-50
2021/09/30 13:42:35;;;;;;;1.60;1.00;;;17.30;64.80;;;;;;5023933;28;20182;-51
2021/09/30 13:45:07;;;;;;;2.25;1.35;;;17.50;65.20;;;;;;5029529;28;20224;-52
2021/09/30 13:47:32;;;;;;;2.60;1.30;;;17.50;64.10;;;;;;5023793;28;22097;-51
2021/09/30 13:49:58;;;;;;;4.27;1.20;;;17.50;66.20;;;;;;5028711;28;20620;-51
2021/09/30 13:52:26;;;;;;;1.45;0.90;;;17.60;65.30;;;;;;5025715;28;20190;-52
2021/09/30 13:54:52;;;;;;;1.67;0.90;;;17.60;64.50;;;;;;5033191;28;20194;-51
2021/09/30 13:57:17;;;;;;;2.17;0.90;;;17.80;66.00;;;;;;5028458;28;20210;-51
2021/09/30 13:59:43;;;;;;;1.83;0.90;;;17.30;65.50;;;;;;5026022;28;20248;-51
2021/09/30 14:02:09;;;;;;;1.90;0.90;;;17.70;64.70;;;;;;5028729;28;20348;-52
2021/09/30 14:04:35;;;;;;;1.65;1.20;;;17.70;64.40;;;;;;5032749;28;20526;-51
2021/09/30 14:07:07;;;;;;;1.05;0.95;;;17.70;63.50;;;;;;5029044;28;20187;-50
2021/09/30 14:09:33;;;;;;;1.30;0.90;;;17.50;62.70;;;;;;5029458;28;20210;-51
2021/09/30 14:12:00;;;;;;;2.05;0.90;;;17.50;63.80;;;;;;5032976;28;20197;-49
2021/09/30 14:14:25;;;;;;;2.58;1.25;;;17.50;65.60;;;;;;5028059;28;20650;-50
2021/09/30 14:16:52;;;;;;;2.53;1.30;;;17.50;66.00;;;;;;5030497;28;20217;-50
2021/09/30 14:19:19;;;;;;;2.63;1.02;;;17.60;66.80;;;;;;5033278;28;20217;-50
2021/09/30 14:21:45;;;;;;;1.80;0.68;;;17.70;67.50;;;;;;5035927;28;20179;-50
2021/09/30 14:24:11;;;;;;;1.35;0.90;;;17.50;64.10;;;;;;5027235;28;20184;-51
2021/09/30 14:26:37;;;;;;;3.20;2.80;;;17.50;64.90;;;;;;5031378;28;20240;-51
2021/09/30 14:29:03;;;;;;;3.60;1.92;;;17.40;65.20;;;;;;5030879;28;20469;-52
2021/09/30 14:31:29;;;;;;;4.50;1.88;;;17.50;64.60;;;;;;5029985;28;20196;-51
2021/09/30 14:33:55;;;;;;;1.10;0.80;;;17.80;65.70;;;;;;5036308;28;20643;-52
2021/09/30 14:36:21;;;;;;;3.50;1.67;;;17.50;64.80;;;;;;5033193;28;20232;-52
2021/09/30 14:38:46;;;;;;;2.30;1.00;;;17.60;65.00;;;;;;5031771;28;20233;-53
2021/09/30 14:41:12;;;;;;;1.53;1.10;;;17.30;64.50;;;;;;5036821;28;20198;-50
2021/09/30 14:43:39;;;;;;;1.83;1.00;;;17.30;64.90;;;;;;5027221;28;20178;-50
2021/09/30 14:46:06;;;;;;;2.58;0.80;;;17.30;65.30;;;;;;5038329;28;20194;-51
2021/09/30 14:48:33;;;;;;;1.63;0.70;;;17.40;65.30;;;;;;5028659;28;20198;-51
2021/09/30 14:51:01;;;;;;;2.85;1.13;;;17.30;65.50;;;;;;5032477;28;20575;-52
2021/09/30 14:53:28;;;;;;;1.00;0.82;;;17.40;65.70;;;;;;5031810;28;20759;-51
2021/09/30 14:55:53;;;;;;;1.98;1.20;;;17.40;67.30;;;;;;5030864;28;20198;-51
2021/09/30 14:58:19;;;;;;;1.83;1.20;;;17.50;69.00;;;;;;5032122;28;20255;-50
2021/09/30 15:00:45;;;;;;;2.17;1.00;;;17.40;69.20;;;;;;5028373;28;20182;-50
2021/09/30 15:03:11;;;;;;;1.40;1.00;;;17.40;68.60;;;;;;5031751;28;20175;-49
2021/09/30 15:05:36;;;;;;;1.10;0.90;;;17.30;66.80;;;;;;5032340;28;20178;-50
2021/09/30 15:08:03;;;;;;;1.27;0.70;;;17.40;65.30;;;;;;5033246;28;20202;-50
2021/09/30 15:10:30;;;;;;;1.42;0.90;;;17.40;64.30;;;;;;5030367;28;20197;-49
2021/09/30 15:12:56;;;;;;;1.52;1.00;;;17.50;64.50;;;;;;5031476;28;20595;-50
2021/09/30 15:15:23;;;;;;;1.88;0.80;;;17.20;65.70;;;;;;5029267;28;20217;-51
2021/09/30 15:18:51;;;;;;;3.67;1.00;;;17.20;64.20;;;;;;5030574;28;20217;-51
2021/09/30 15:23:28;;;;;;;1.90;1.00;;;17.00;64.80;;;;;;5027658;28;20193;-52
2021/09/30 15:25:53;;;;;;;1.03;0.83;;;17.00;66.10;;;;;;5031745;28;20515;-52
2021/09/30 15:28:20;;;;;;;2.17;1.13;;;16.80;65.80;;;;;;5027527;28;20277;-51
2021/09/30 15:30:46;;;;;;;1.70;1.10;;;16.90;66.30;;;;;;5027736;28;20187;-52
2021/09/30 15:33:13;;;;;;;2.63;1.00;;;16.80;66.50;;;;;;5024935;28;20687;-52
2021/09/30 15:35:42;;;;;;;3.20;1.67;;;16.80;67.50;;;;;;5030770;28;20206;-52
2021/09/30 15:38:11;;;;;;;1.45;1.00;;;16.70;67.70;;;;;;5025822;28;20293;-52
2021/09/30 15:40:37;;;;;;;1.50;0.77;;;16.60;66.70;;;;;;5034720;28;20546;-52
2021/09/30 15:43:03;;;;;;;1.38;0.80;;;16.60;66.90;;;;;;5048110;28;20675;-52
2021/09/30 15:45:29;;;;;;;1.85;0.95;;;16.80;65.80;;;;;;5019808;28;20210;-52
2021/09/30 15:47:55;;;;;;;1.47;1.00;;;16.80;66.90;;;;;;5034360;28;20291;-52
2021/09/30 15:50:23;;;;;;;2.30;1.00;;;16.40;68.50;;;;;;5025908;28;20472;-52
2021/09/30 15:52:50;;;;;;;0.90;0.70;;;16.80;67.70;;;;;;5023383;28;20440;-52
2021/09/30 15:55:15;;;;;;;1.90;0.80;;;16.50;66.50;;;;;;5030546;28;20189;-51
2021/09/30 15:57:41;;;;;;;2.40;1.17;;;16.70;67.60;;;;;;5028110;28;20222;-51